AKST,Max TemperatureF,Mean TemperatureF,Min TemperatureF,Max Dew PointF,MeanDew PointF,Min DewpointF,Max Humidity, Mean Humidity, Min Humidity, Max Sea Level PressureIn, Mean Sea Level PressureIn, Min Sea Level PressureIn, Max VisibilityMiles, Mean VisibilityMiles, Min VisibilityMiles, Max Wind SpeedMPH, Mean Wind SpeedMPH, Max Gust SpeedMPH,PrecipitationIn, CloudCover, Events, WindDirDegrees
2014-2-1,45,39,33,36,34,31,0,0,0,30.37,30.34,30.29,10,10,10,17,6,22,0.00,4,,302
2014-2-2,40,38,35,36,34,30,0,0,0,30.36,30.30,30.25,10,10,7,14,8,18,0.02,8,Rain,353
2014-2-3,41,39,36,39,37,35,0,0,0,30.36,30.27,30.23,10,8,4,32,20,38,0.66,8,Rain,100
2014-2-4,42,40,38,38,36,33,0,0,0,30.68,30.54,30.38,10,9,5,32,18,37,0.06,8,Rain,98
2014-2-5,43,37,30,35,31,29,0,0,0,30.69,30.64,30.58,10,10,9,7,2,10,0.00,6,,273
2014-2-6,41,36,31,34,29,16,0,0,0,30.57,30.24,29.63,10,10,9,28,6,37,T,4,Rain-Snow,271
2014-2-7,39,33,26,36,27,19,0,0,0,29.76,29.45,29.18,10,4,0,41,20,52,0.23,8,Fog-Rain-Snow,337
2014-2-8,41,38,34,36,33,31,0,0,0,30.14,30.04,29.76,10,9,5,40,14,45,0.06,7,Rain-Snow,50
2014-2-9,36,31,26,31,18,12,0,0,0,30.07,29.87,29.73,10,9,4,25,12,31,T,4,Snow,305
2014-2-10,37,31,24,32,22,12,0,0,0,29.79,29.71,29.68,10,6,0,25,16,31,0.09,7,Snow,317
2014-2-11,36,30,24,28,22,13,0,0,0,29.79,29.65,29.48,10,10,7,18,8,23,0.00,4,,291
2014-2-12,24,18,11,10,5,0,0,0,0,29.47,29.26,29.08,10,10,4,39,17,54,T,2,Snow,284
2014-2-13,13,10,7,5,2,-6,0,0,0,29.08,28.96,28.93,10,6,1,25,10,33,T,7,Snow,294
2014-2-14,20,17,13,15,5,2,0,0,0,28.95,28.85,28.81,10,9,3,29,14,38,T,7,Snow,293
2014-2-15,23,17,11,12,9,3,0,0,0,28.85,28.73,28.66,10,10,9,17,9,21,0.00,3,,294
2014-2-16,22,18,14,12,7,3,0,0,0,29.06,28.90,28.73,10,9,3,18,11,24,T,6,Snow,300
2014-2-17,25,17,8,7,3,-1,0,0,0,29.22,29.11,29.06,10,10,10,15,8,20,0.00,3,,296
2014-2-18,23,16,9,11,6,2,0,0,0,29.42,29.32,29.22,10,10,9,7,9,8,T,2,Snow,296
2014-2-19,28,18,7,9,7,1,0,0,0,29.83,29.63,29.43,10,10,10,16,6,23,0.00,2,,273
2014-2-20,33,20,6,31,15,3,0,0,0,29.99,29.94,29.85,10,8,1,20,5,23,0.08,5,Snow,271
2014-2-21,39,36,33,38,33,30,0,0,0,30.08,30.02,29.96,8,4,2,24,15,28,0.70,8,Rain-Snow,62
2014-2-22,40,40,39,39,38,33,0,0,0,30.07,30.01,29.91,9,4,2,43,24,49,0.39,8,Rain,80
2014-2-23,39,38,36,32,30,28,0,0,0,29.91,29.88,29.85,10,8,3,43,29,52,0.12,8,Rain-Snow,77
2014-2-24,39,37,35,38,34,30,0,0,0,29.93,29.88,29.85,9,6,3,33,21,39,0.33,8,Rain-Snow,76
2014-2-25,39,37,34,38,36,28,0,0,0,29.94,29.86,29.64,10,4,1,36,21,44,1.00,8,Rain-Snow,51
2014-2-26,41,40,38,41,40,39,0,0,0,29.64,29.55,29.50,3,2,0,23,13,26,2.51,8,Fog-Rain,57
2014-2-27,43,37,31,41,36,30,0,0,0,29.98,29.67,29.55,10,6,1,14,5,18,0.47,6,Rain,126
2014-2-28,51,40,29,35,31,28,0,0,0,30.08,30.04,29.99,10,10,10,7,1,9,0.00,5,,237